createdAt,value
2022-08-25T00:01:40.153Z,19.22
2022-08-25T00:04:42.784Z,19.23
2022-08-25T00:07:46.583Z,19.30
2022-08-25T00:10:54.003Z,19.35
2022-08-25T00:14:10.561Z,19.28
2022-08-25T00:17:13.358Z,19.22
2022-08-25T00:20:15.988Z,19.20
2022-08-25T00:23:19.629Z,19.13
2022-08-25T00:26:21.943Z,19.10
2022-08-25T00:29:27.948Z,19.05
2022-08-25T00:32:30.192Z,19.04
2022-08-25T00:35:32.741Z,19.01
2022-08-25T00:38:35.366Z,19.02
2022-08-25T00:41:41.084Z,19.02
2022-08-25T00:44:44.189Z,19.00
2022-08-25T00:47:47.106Z,19.01
2022-08-25T00:50:49.459Z,18.98
2022-08-25T00:53:52.156Z,18.93
2022-08-25T00:56:55.147Z,18.98
2022-08-25T00:59:57.919Z,18.97
2022-08-25T01:03:00.260Z,18.93
2022-08-25T01:06:04.122Z,18.87
2022-08-25T01:09:07.346Z,18.85
2022-08-25T01:12:10.265Z,18.77
2022-08-25T01:15:13.567Z,18.73
2022-08-25T01:18:16.348Z,18.72
2022-08-25T01:21:20.444Z,18.65
2022-08-25T01:24:34.131Z,18.65
2022-08-25T01:27:36.406Z,18.60
2022-08-25T01:30:39.136Z,18.63
2022-08-25T01:33:42.678Z,18.59
2022-08-25T01:36:45.270Z,18.53
2022-08-25T01:39:48.029Z,18.49
2022-08-25T01:43:19.880Z,18.48
2022-08-25T01:46:22.231Z,18.60
2022-08-25T01:49:25.058Z,18.57
2022-08-25T01:52:33.286Z,18.51
2022-08-25T01:55:51.793Z,18.52
2022-08-25T01:58:54.233Z,18.52
2022-08-25T02:01:59.695Z,18.48
2022-08-25T02:05:02.882Z,18.37
2022-08-25T02:08:05.425Z,18.36
2022-08-25T02:11:11.974Z,18.42
2022-08-25T02:14:15.284Z,18.46
2022-08-25T02:17:17.883Z,18.42
2022-08-25T02:20:20.288Z,18.36
2022-08-25T02:23:23.068Z,18.26
2022-08-25T02:26:25.407Z,18.27
2022-08-25T02:29:27.996Z,18.28
2022-08-25T02:32:30.339Z,18.24
2022-08-25T02:35:32.954Z,18.21
2022-08-25T02:38:35.937Z,18.21
2022-08-25T02:41:39.017Z,18.22
2022-08-25T02:44:41.287Z,18.17
2022-08-25T02:47:44.222Z,18.15
2022-08-25T02:50:47.315Z,18.14
2022-08-25T02:53:50.049Z,18.15
2022-08-25T02:56:52.389Z,18.16
2022-08-25T02:59:55.030Z,18.18
2022-08-25T03:02:57.577Z,18.14
2022-08-25T03:06:00.311Z,18.13
2022-08-25T03:09:03.111Z,18.14
2022-08-25T03:12:05.936Z,18.11
2022-08-25T03:15:13.101Z,18.10
2022-08-25T03:18:16.093Z,18.13
2022-08-25T03:21:19.524Z,18.14
2022-08-25T03:24:23.048Z,18.10
2022-08-25T03:27:25.768Z,18.15
2022-08-25T03:30:29.431Z,18.12
2022-08-25T03:33:31.771Z,18.06
2022-08-25T03:36:34.599Z,18.03
2022-08-25T03:39:39.529Z,18.01
2022-08-25T03:42:44.986Z,18.01
2022-08-25T03:45:47.927Z,18.05
2022-08-25T03:48:50.923Z,18.01
2022-08-25T03:51:54.737Z,18.00
2022-08-25T03:54:57.318Z,18.02
2022-08-25T03:57:59.714Z,18.01
2022-08-25T04:01:02.355Z,18.06
2022-08-25T04:04:05.532Z,18.03
2022-08-25T04:07:07.854Z,18.02
2022-08-25T04:10:10.627Z,18.07
2022-08-25T04:13:12.863Z,18.13
2022-08-25T04:16:23.857Z,18.14
2022-08-25T04:19:26.504Z,18.19
2022-08-25T04:22:29.921Z,18.25
2022-08-25T04:25:32.299Z,18.32
2022-08-25T04:28:34.994Z,18.34
2022-08-25T04:31:39.492Z,18.42
2022-08-25T04:34:43.413Z,18.47
2022-08-25T04:37:48.152Z,18.51
2022-08-25T04:40:57.814Z,18.62
2022-08-25T04:44:00.835Z,18.70
2022-08-25T04:47:04.032Z,18.78
2022-08-25T04:50:07.335Z,18.82
2022-08-25T04:53:10.527Z,18.88
2022-08-25T04:56:15.431Z,18.97
2022-08-25T04:59:18.662Z,19.06
2022-08-25T05:02:21.384Z,19.11
2022-08-25T05:05:24.739Z,19.19
2022-08-25T05:08:27.431Z,19.28
2022-08-25T05:11:30.104Z,19.35
2022-08-25T05:14:35.311Z,19.48
2022-08-25T05:17:38.028Z,19.56
2022-08-25T05:20:40.294Z,19.69
2022-08-25T05:23:43.088Z,19.81
2022-08-25T05:26:45.409Z,19.93
2022-08-25T05:29:48.217Z,20.13
2022-08-25T05:32:50.487Z,20.33
2022-08-25T05:35:53.201Z,20.45
2022-08-25T05:38:55.685Z,20.53
2022-08-25T05:41:58.224Z,20.58
2022-08-25T05:45:00.541Z,20.74
2022-08-25T05:48:03.393Z,20.89
2022-08-25T05:51:06.984Z,21.18
2022-08-25T05:54:09.689Z,21.42
2022-08-25T05:57:11.999Z,21.50
2022-08-25T06:00:14.716Z,21.49
2022-08-25T06:03:17.808Z,21.75
2022-08-25T06:06:21.544Z,21.96
2022-08-25T06:09:24.319Z,22.27
2022-08-25T06:12:26.719Z,22.66
2022-08-25T06:15:29.311Z,23.76
2022-08-25T06:18:32.760Z,27.30
2022-08-25T06:21:35.615Z,31.83
2022-08-25T06:24:37.924Z,35.74
2022-08-25T06:27:40.471Z,37.26
2022-08-25T06:30:42.814Z,37.90
2022-08-25T06:33:45.731Z,39.06
2022-08-25T06:36:48.951Z,39.35
2022-08-25T06:39:52.117Z,36.87
2022-08-25T06:42:54.460Z,36.11
2022-08-25T06:45:57.164Z,38.31
2022-08-25T06:49:00.796Z,40.13
2022-08-25T06:52:04.075Z,40.87
2022-08-25T06:55:08.792Z,39.26
2022-08-25T06:58:11.408Z,41.23
2022-08-25T07:01:19.572Z,42.91
2022-08-25T07:04:22.454Z,43.68
2022-08-25T07:07:24.764Z,44.16
2022-08-25T07:10:27.416Z,44.76
2022-08-25T07:13:33.183Z,45.43
2022-08-25T07:16:36.981Z,44.90
2022-08-25T07:19:41.054Z,44.85
2022-08-25T07:22:43.758Z,45.34
2022-08-25T07:25:46.404Z,44.77
2022-08-25T07:28:49.327Z,42.68
2022-08-25T07:31:52.695Z,44.01
2022-08-25T07:35:14.679Z,44.15
2022-08-25T07:38:20.731Z,44.23
2022-08-25T07:41:23.621Z,45.31
2022-08-25T07:44:28.092Z,43.86
2022-08-25T07:47:31.558Z,42.66
2022-08-25T07:50:34.672Z,40.96
2022-08-25T07:53:37.623Z,37.87
2022-08-25T07:56:41.433Z,34.26
2022-08-25T07:59:44.043Z,32.00
2022-08-25T08:02:46.415Z,31.51
2022-08-25T08:05:49.063Z,30.88
2022-08-25T08:08:54.853Z,30.32
2022-08-25T08:12:00.497Z,30.48
2022-08-25T08:15:03.367Z,30.28
2022-08-25T08:18:12.805Z,30.24
2022-08-25T08:21:19.225Z,29.98
2022-08-25T08:24:43.986Z,29.74
2022-08-25T08:27:46.203Z,29.69
2022-08-25T08:30:53.764Z,29.52
2022-08-25T08:33:57.308Z,29.48
2022-08-25T08:37:00.620Z,29.10
2022-08-25T08:40:03.586Z,29.07
2022-08-25T08:43:17.985Z,29.25
2022-08-25T08:46:22.823Z,29.54
2022-08-25T08:49:40.977Z,29.76
2022-08-25T08:52:59.631Z,30.08
2022-08-25T08:56:11.714Z,30.15
2022-08-25T08:59:19.587Z,29.53
2022-08-25T09:02:51.607Z,29.15
2022-08-25T09:05:56.152Z,29.18
2022-08-25T09:09:02.050Z,29.65
2022-08-25T09:12:10.401Z,29.15
2022-08-25T09:15:20.153Z,29.43
2022-08-25T09:18:23.300Z,29.18
2022-08-25T09:21:49.158Z,29.14
2022-08-25T09:24:57.573Z,29.27
2022-08-25T09:28:08.273Z,29.22
2022-08-25T09:31:18.754Z,29.56
2022-08-25T09:34:26.666Z,29.94
2022-08-25T09:37:30.578Z,29.34
2022-08-25T09:40:37.717Z,29.39
2022-08-25T09:43:44.703Z,29.50
2022-08-25T09:47:04.302Z,29.49
2022-08-25T09:50:18.500Z,29.66
2022-08-25T09:53:22.520Z,30.11
2022-08-25T09:56:27.947Z,30.16
2022-08-25T09:59:35.971Z,29.78
2022-08-25T10:02:38.888Z,29.73
2022-08-25T10:05:50.141Z,29.51
2022-08-25T10:09:06.619Z,29.90
2022-08-25T10:12:17.791Z,30.22
2022-08-25T10:15:29.784Z,30.68
2022-08-25T10:18:33.365Z,30.66
2022-08-25T10:21:38.436Z,30.30
2022-08-25T10:24:43.967Z,30.54
2022-08-25T10:27:53.956Z,30.86
2022-08-25T10:31:13.918Z,31.03
2022-08-25T10:34:31.590Z,31.08
2022-08-25T10:37:52.813Z,31.46
2022-08-25T10:41:00.359Z,31.66
2022-08-25T10:44:43.260Z,31.37
2022-08-25T10:48:04.393Z,31.50
2022-08-25T10:51:19.516Z,31.78
2022-08-25T10:54:31.557Z,31.85
2022-08-25T10:57:48.333Z,31.78
2022-08-25T11:01:09.740Z,31.84
2022-08-25T11:04:27.740Z,31.45
2022-08-25T11:07:44.986Z,31.65
2022-08-25T11:11:09.322Z,31.83
2022-08-25T11:14:23.449Z,31.59
2022-08-25T11:17:39.659Z,31.59
2022-08-25T11:20:58.407Z,31.24
2022-08-25T11:24:20.832Z,31.45
2022-08-25T11:27:25.866Z,31.35
2022-08-25T11:30:30.149Z,31.30
2022-08-25T11:33:33.699Z,31.49
2022-08-25T11:36:40.530Z,31.86
2022-08-25T11:39:42.902Z,31.92
2022-08-25T11:42:51.883Z,31.37
2022-08-25T11:46:01.021Z,31.38
2022-08-25T11:49:15.233Z,31.68
2022-08-25T11:52:32.820Z,32.04
2022-08-25T11:55:37.373Z,32.18
2022-08-25T11:58:45.107Z,31.43
2022-08-25T12:01:47.922Z,31.25
2022-08-25T12:04:51.585Z,31.53
2022-08-25T12:08:20.119Z,31.34
2022-08-25T12:11:38.850Z,31.12
2022-08-25T12:14:45.418Z,31.11
2022-08-25T12:18:23.712Z,31.85
2022-08-25T12:21:30.877Z,32.06
2022-08-25T12:24:47.790Z,31.98
2022-08-25T12:27:59.968Z,31.78
2022-08-25T12:31:15.844Z,31.63
2022-08-25T12:34:27.474Z,31.30
2022-08-25T12:37:30.204Z,31.30
2022-08-25T12:40:35.152Z,31.50
2022-08-25T12:43:42.400Z,31.56
2022-08-25T12:46:44.997Z,31.79
2022-08-25T12:49:48.391Z,31.82
2022-08-25T12:52:52.658Z,31.41
2022-08-25T12:55:59.977Z,31.51
2022-08-25T12:59:03.476Z,31.74
2022-08-25T13:02:12.124Z,31.92
2022-08-25T13:05:33.909Z,31.88
2022-08-25T13:08:56.241Z,31.98
2022-08-25T13:12:12.604Z,31.98
2022-08-25T13:15:25.148Z,31.85
2022-08-25T13:18:29.731Z,31.87
2022-08-25T13:21:37.203Z,31.52
2022-08-25T13:24:41.500Z,31.23
2022-08-25T13:27:47.981Z,31.50
2022-08-25T13:30:58.811Z,31.59
2022-08-25T13:34:05.375Z,31.97
2022-08-25T13:37:30.371Z,32.05
2022-08-25T13:40:36.511Z,31.83
2022-08-25T13:43:40.135Z,31.88
2022-08-25T13:46:45.357Z,31.95
2022-08-25T13:49:47.843Z,32.22
2022-08-25T13:52:58.926Z,32.08
2022-08-25T13:56:02.452Z,32.15
2022-08-25T13:59:07.104Z,31.59
2022-08-25T14:02:19.274Z,31.47
2022-08-25T14:05:33.724Z,31.58
2022-08-25T14:08:39.729Z,31.86
2022-08-25T14:11:44.498Z,31.91
2022-08-25T14:14:57.211Z,32.04
2022-08-25T14:18:20.809Z,31.98
2022-08-25T14:21:30.529Z,31.73
2022-08-25T14:24:37.615Z,31.63
2022-08-25T14:28:03.482Z,31.63
2022-08-25T14:31:13.683Z,31.58
2022-08-25T14:34:22.994Z,31.41
2022-08-25T14:37:26.773Z,31.20
2022-08-25T14:40:34.091Z,31.23
2022-08-25T14:43:37.223Z,31.31
2022-08-25T14:46:50.926Z,31.26
2022-08-25T14:49:53.582Z,31.22
2022-08-25T14:52:58.307Z,31.03
2022-08-25T14:56:06.885Z,31.18
2022-08-25T14:59:11.660Z,31.01
2022-08-25T15:02:20.088Z,30.94
2022-08-25T15:05:28.439Z,30.77
2022-08-25T15:08:49.847Z,30.83
2022-08-25T15:11:54.537Z,30.97
2022-08-25T15:14:58.176Z,30.95
2022-08-25T15:18:01.317Z,31.01
2022-08-25T15:21:04.149Z,30.92
2022-08-25T15:24:07.420Z,30.93
2022-08-25T15:27:11.064Z,30.99
2022-08-25T15:30:14.139Z,30.79
2022-08-25T15:33:17.392Z,30.53
2022-08-25T15:36:22.317Z,30.33
2022-08-25T15:39:27.656Z,30.30
2022-08-25T15:42:30.041Z,30.27
2022-08-25T15:45:33.020Z,30.33
2022-08-25T15:48:35.904Z,30.34
2022-08-25T15:51:38.553Z,30.25
2022-08-25T15:54:40.944Z,30.26
2022-08-25T15:57:44.700Z,30.24
2022-08-25T16:00:56.163Z,30.25
2022-08-25T16:03:59.531Z,30.23
2022-08-25T16:07:01.857Z,30.10
2022-08-25T16:10:07.108Z,30.07
2022-08-25T16:13:10.610Z,30.04
2022-08-25T16:16:15.512Z,29.90
2022-08-25T16:19:17.894Z,29.78
2022-08-25T16:22:20.479Z,29.68
2022-08-25T16:25:22.789Z,29.58
2022-08-25T16:28:25.514Z,29.50
2022-08-25T16:31:27.847Z,29.45
2022-08-25T16:34:30.921Z,29.39
2022-08-25T16:37:35.890Z,29.42
2022-08-25T16:40:39.522Z,29.38
2022-08-25T16:43:44.376Z,29.31
2022-08-25T16:46:47.168Z,29.27
2022-08-25T16:49:49.480Z,29.24
2022-08-25T16:53:10.938Z,29.16
2022-08-25T16:56:13.795Z,29.05
2022-08-25T16:59:17.232Z,28.93
2022-08-25T17:02:19.596Z,28.89
2022-08-25T17:05:24.350Z,28.69
2022-08-25T17:08:30.779Z,28.63
2022-08-25T17:11:35.973Z,28.48
2022-08-25T17:14:38.262Z,28.34
2022-08-25T17:17:40.792Z,28.29
2022-08-25T17:20:44.726Z,28.16
2022-08-25T17:23:47.823Z,28.05
2022-08-25T17:26:53.710Z,27.92
2022-08-25T17:29:58.833Z,27.81
2022-08-25T17:33:02.521Z,27.66
2022-08-25T17:36:06.146Z,27.47
2022-08-25T17:39:09.537Z,27.35
2022-08-25T17:42:12.194Z,27.27
2022-08-25T17:45:14.603Z,27.12
2022-08-25T17:48:18.017Z,27.09
2022-08-25T17:51:21.068Z,26.97
2022-08-25T17:54:23.664Z,26.83
2022-08-25T17:57:27.108Z,26.71
2022-08-25T18:00:30.081Z,26.65
2022-08-25T18:03:33.496Z,26.58
2022-08-25T18:06:35.819Z,26.47
2022-08-25T18:09:38.540Z,26.30
2022-08-25T18:12:41.514Z,26.24
2022-08-25T18:15:45.604Z,26.17
2022-08-25T18:18:47.998Z,26.09
2022-08-25T18:21:52.550Z,26.01
2022-08-25T18:24:55.116Z,26.05
2022-08-25T18:27:58.236Z,25.97
2022-08-25T18:31:00.604Z,25.97
2022-08-25T18:34:04.970Z,25.84
2022-08-25T18:37:25.853Z,25.75
2022-08-25T18:40:29.077Z,25.85
2022-08-25T18:43:33.971Z,25.74
2022-08-25T18:46:36.801Z,25.68
2022-08-25T18:49:39.598Z,25.63
2022-08-25T18:52:42.163Z,25.66
2022-08-25T18:55:45.531Z,25.55
2022-08-25T18:58:48.602Z,25.48
2022-08-25T19:01:52.540Z,25.42
2022-08-25T19:04:55.369Z,25.35
2022-08-25T19:07:58.603Z,25.33
2022-08-25T19:11:02.835Z,25.26
2022-08-25T19:14:12.046Z,25.16
2022-08-25T19:17:15.175Z,25.17
2022-08-25T19:20:17.906Z,25.21
2022-08-25T19:23:20.600Z,25.11
2022-08-25T19:26:23.297Z,25.03
2022-08-25T19:29:26.511Z,25.00
2022-08-25T19:32:32.949Z,24.99
2022-08-25T19:35:37.467Z,24.99
2022-08-25T19:38:40.787Z,24.96
2022-08-25T19:41:46.689Z,24.96
2022-08-25T19:44:52.528Z,24.85
2022-08-25T19:47:56.166Z,24.80
2022-08-25T19:50:59.370Z,24.75
2022-08-25T19:54:02.846Z,24.76
2022-08-25T19:57:07.766Z,24.83
2022-08-25T20:00:18.447Z,24.95
2022-08-25T20:03:22.000Z,24.95
2022-08-25T20:06:24.618Z,24.85
2022-08-25T20:09:39.433Z,24.79
2022-08-25T20:12:44.706Z,24.79
2022-08-25T20:15:47.965Z,24.66
2022-08-25T20:18:50.372Z,24.51
2022-08-25T20:21:52.943Z,24.44
2022-08-25T20:25:01.171Z,24.39
2022-08-25T20:28:04.301Z,24.44
2022-08-25T20:31:06.577Z,24.48
2022-08-25T20:34:09.278Z,24.49
2022-08-25T20:37:12.532Z,24.34
2022-08-25T20:40:17.955Z,24.20
2022-08-25T20:43:23.219Z,24.09
2022-08-25T20:46:26.432Z,24.02
2022-08-25T20:49:30.592Z,23.96
2022-08-25T20:52:43.740Z,23.93
2022-08-25T20:55:47.350Z,23.88
2022-08-25T20:58:50.137Z,23.86
2022-08-25T21:01:53.051Z,23.76
2022-08-25T21:04:57.061Z,23.73
2022-08-25T21:07:59.597Z,23.66
2022-08-25T21:11:02.234Z,23.58
2022-08-25T21:14:06.094Z,23.54
2022-08-25T21:17:13.125Z,23.47
2022-08-25T21:20:16.436Z,23.44
2022-08-25T21:23:19.099Z,23.42
2022-08-25T21:26:23.419Z,23.39
2022-08-25T21:29:28.513Z,23.35
2022-08-25T21:32:30.940Z,23.30
2022-08-25T21:35:33.601Z,23.26
2022-08-25T21:38:37.242Z,23.17
2022-08-25T21:41:44.196Z,23.08
2022-08-25T21:44:47.603Z,23.02
2022-08-25T21:47:50.271Z,23.00
2022-08-25T21:51:07.922Z,22.93
2022-08-25T21:54:14.711Z,22.92
2022-08-25T21:57:19.142Z,22.87
2022-08-25T22:00:26.203Z,22.82
2022-08-25T22:03:28.776Z,22.74
2022-08-25T22:06:31.135Z,22.75
2022-08-25T22:09:34.012Z,22.70
2022-08-25T22:12:36.429Z,22.64
2022-08-25T22:15:39.003Z,22.60
2022-08-25T22:18:42.271Z,22.50
2022-08-25T22:21:45.552Z,22.43
2022-08-25T22:24:47.851Z,22.35
2022-08-25T22:27:56.502Z,22.33
2022-08-25T22:31:04.068Z,22.30
2022-08-25T22:34:06.828Z,22.27
2022-08-25T22:37:09.166Z,22.28
2022-08-25T22:40:12.083Z,22.24
2022-08-25T22:43:14.446Z,22.27
2022-08-25T22:46:17.673Z,22.28
2022-08-25T22:49:20.075Z,22.21
2022-08-25T22:52:32.013Z,22.16
2022-08-25T22:55:41.040Z,22.11
2022-08-25T22:58:43.921Z,22.06
2022-08-25T23:01:54.636Z,22.03
2022-08-25T23:04:57.827Z,22.01
2022-08-25T23:08:03.467Z,21.95
2022-08-25T23:11:09.926Z,21.91
2022-08-25T23:14:12.266Z,21.85
2022-08-25T23:17:15.163Z,21.78
2022-08-25T23:20:36.290Z,21.77
2022-08-25T23:23:48.058Z,21.74
2022-08-25T23:26:51.405Z,21.69
2022-08-25T23:29:54.394Z,21.67
2022-08-25T23:32:56.690Z,21.71
2022-08-25T23:36:00.925Z,21.63
2022-08-25T23:39:04.365Z,21.57
2022-08-25T23:42:08.798Z,21.54
2022-08-25T23:45:11.231Z,21.48
2022-08-25T23:48:14.293Z,21.44
2022-08-25T23:51:29.292Z,21.39
2022-08-25T23:54:32.001Z,21.39
2022-08-25T23:57:34.916Z,21.31
